TimeMST,TemperatureF,Dew PointF,Humidity,Sea Level PressureIn,VisibilityMPH,Wind Direction,Wind SpeedMPH,Gust SpeedMPH,PrecipitationIn,Events,Conditions,WindDirDegrees,DateUTC
12:15 AM,44.6,23.0,43,29.88,10.0,NNW,8.1,-,N/A,,Clear,330,2013-03-03 07:15:00
12:55 AM,42.8,21.2,42,29.86,10.0,West,12.7,23.0,N/A,,Clear,280,2013-03-03 07:55:00
1:15 AM,48.2,24.8,40,29.85,10.0,WSW,17.3,25.3,N/A,,Clear,250,2013-03-03 08:15:00
1:35 AM,48.2,24.8,40,29.85,10.0,West,20.7,26.5,N/A,,Clear,260,2013-03-03 08:35:00
1:55 AM,48.2,24.8,40,29.84,10.0,WSW,19.6,28.8,N/A,,Clear,250,2013-03-03 08:55:00
2:15 AM,46.4,24.8,43,29.84,10.0,WSW,13.8,25.3,N/A,,Clear,240,2013-03-03 09:15:00
2:35 AM,46.4,26.6,46,29.82,10.0,WSW,16.1,26.5,N/A,,Clear,250,2013-03-03 09:35:00
2:55 AM,46.4,28.4,50,29.81,10.0,WSW,18.4,28.8,N/A,,Clear,240,2013-03-03 09:55:00
3:15 AM,46.4,28.4,50,29.80,10.0,WSW,17.3,27.6,N/A,,Clear,250,2013-03-03 10:15:00
3:35 AM,44.6,28.4,53,29.79,10.0,West,18.4,23.0,N/A,,Clear,260,2013-03-03 10:35:00
3:55 AM,44.6,28.4,53,29.78,10.0,WSW,13.8,23.0,N/A,,Clear,250,2013-03-03 10:55:00
4:15 AM,44.6,28.4,53,29.78,10.0,WSW,9.2,16.1,N/A,,Clear,240,2013-03-03 11:15:00
4:35 AM,41.0,28.4,61,29.77,10.0,SW,12.7,-,N/A,,Clear,220,2013-03-03 11:35:00
5:35 AM,42.8,28.4,57,29.77,10.0,SW,9.2,-,N/A,,Clear,230,2013-03-03 12:35:00
5:55 AM,39.2,30.2,70,29.77,10.0,NE,6.9,-,N/A,,Partly Cloudy,40,2013-03-03 12:55:00
6:15 AM,41.0,30.2,65,29.77,10.0,SSE,3.5,-,N/A,,Scattered Clouds,160,2013-03-03 13:15:00
6:35 AM,42.8,30.2,61,29.77,10.0,Calm,Calm,-,N/A,,Overcast,0,2013-03-03 13:35:00
6:55 AM,42.8,30.2,61,29.76,10.0,South,9.2,-,N/A,,Overcast,190,2013-03-03 13:55:00
7:15 AM,42.8,30.2,61,29.76,10.0,SSW,5.8,-,N/A,,Overcast,200,2013-03-03 14:15:00
7:35 AM,42.8,30.2,61,29.75,10.0,SSW,6.9,-,N/A,,Overcast,210,2013-03-03 14:35:00
7:55 AM,42.8,32.0,66,29.74,10.0,SSW,12.7,18.4,N/A,,Overcast,210,2013-03-03 14:55:00
8:15 AM,44.6,30.2,57,29.73,10.0,SW,13.8,26.5,N/A,,Overcast,230,2013-03-03 15:15:00
8:35 AM,46.4,30.2,53,29.72,10.0,South,12.7,24.2,N/A,,Overcast,190,2013-03-03 15:35:00
8:55 AM,46.4,30.2,53,29.70,10.0,SSW,10.4,17.3,N/A,,Overcast,200,2013-03-03 15:55:00
9:15 AM,48.2,30.2,50,29.70,10.0,WSW,19.6,24.2,N/A,,Overcast,240,2013-03-03 16:15:00
9:35 AM,48.2,30.2,50,29.69,10.0,WSW,17.3,28.8,N/A,,Overcast,250,2013-03-03 16:35:00
9:55 AM,46.4,28.4,50,29.68,10.0,WSW,17.3,24.2,N/A,,Mostly Cloudy,240,2013-03-03 16:55:00
10:15 AM,48.2,30.2,50,29.67,10.0,West,19.6,33.4,N/A,,Overcast,260,2013-03-03 17:15:00
10:35 AM,48.2,30.2,50,29.66,10.0,WSW,20.7,28.8,N/A,,Overcast,250,2013-03-03 17:35:00
10:55 AM,50.0,30.2,47,29.64,10.0,West,18.4,27.6,N/A,,Scattered Clouds,280,2013-03-03 17:55:00
11:15 AM,51.8,28.4,41,29.63,10.0,West,20.7,33.4,N/A,,Partly Cloudy,270,2013-03-03 18:15:00
11:35 AM,51.8,28.4,41,29.62,10.0,West,20.7,28.8,N/A,,Clear,260,2013-03-03 18:35:00
12:15 PM,51.8,28.4,41,29.59,10.0,WSW,16.1,32.2,N/A,,Clear,250,2013-03-03 19:15:00
12:35 PM,51.8,28.4,41,29.58,10.0,WSW,18.4,31.1,N/A,,Clear,250,2013-03-03 19:35:00
12:55 PM,51.8,28.4,41,29.56,10.0,WSW,18.4,29.9,N/A,,Clear,250,2013-03-03 19:55:00
1:15 PM,51.8,28.4,41,29.55,10.0,WSW,24.2,38.0,N/A,,Clear,250,2013-03-03 20:15:00
1:35 PM,51.8,30.2,44,29.54,10.0,WSW,25.3,38.0,N/A,,Clear,240,2013-03-03 20:35:00
1:55 PM,51.8,28.4,41,29.54,10.0,WSW,21.9,36.8,N/A,,Clear,250,2013-03-03 20:55:00
2:15 PM,51.8,28.4,41,29.54,10.0,WSW,17.3,27.6,N/A,,Clear,250,2013-03-03 21:15:00
2:35 PM,51.8,30.2,44,29.53,10.0,WSW,19.6,23.0,N/A,,Clear,250,2013-03-03 21:35:00
2:56 PM,53.6,28.4,38,29.54,10.0,WSW,16.1,25.3,N/A,,Clear,250,2013-03-03 21:56:00
3:15 PM,53.6,26.6,35,29.54,10.0,WSW,16.1,23.0,N/A,,Clear,250,2013-03-03 22:15:00
3:55 PM,51.8,24.8,35,29.53,10.0,WSW,12.7,18.4,N/A,,Clear,240,2013-03-03 22:55:00
4:15 PM,51.8,21.2,30,29.53,10.0,SW,15.0,19.6,N/A,,Clear,220,2013-03-03 23:15:00
4:35 PM,51.8,23.0,33,29.53,10.0,West,10.4,-,N/A,,Clear,260,2013-03-03 23:35:00
4:55 PM,48.2,19.4,32,29.58,10.0,NE,20.7,29.9,N/A,,Clear,40,2013-03-03 23:55:00
5:35 PM,30.2,24.8,80,29.62,10.0,NNE,19.6,26.5,N/A,,Scattered Clouds,30,2013-03-04 00:35:00
5:55 PM,30.2,23.0,75,29.62,10.0,NNE,24.2,31.1,N/A,,Overcast,30,2013-03-04 00:55:00
6:15 PM,28.4,23.0,80,29.66,10.0,North,23.0,31.1,N/A,,Overcast,10,2013-03-04 01:15:00
6:35 PM,28.4,24.8,86,29.67,10.0,North,24.2,31.1,N/A,,Mostly Cloudy,10,2013-03-04 01:35:00
6:55 PM,28.4,24.8,86,29.68,3.0,NNE,24.2,27.6,N/A,,Overcast,30,2013-03-04 01:55:00
7:15 PM,26.6,24.8,93,29.70,2.5,NE,17.3,28.8,N/A,,Overcast,40,2013-03-04 02:15:00
7:55 PM,26.6,24.8,93,29.72,10.0,NNE,10.4,-,N/A,,Mostly Cloudy,30,2013-03-04 02:55:00
8:15 PM,28.4,21.2,74,29.73,10.0,NNE,5.8,-,N/A,,Overcast,20,2013-03-04 03:15:00
8:35 PM,28.4,21.2,74,-9999,10.0,North,-9999.0,-,N/A,,Overcast,0,2013-03-04 03:35:00
8:55 PM,30.2,17.6,60,29.74,10.0,WNW,3.5,-,N/A,,Overcast,290,2013-03-04 03:55:00
9:15 PM,30.2,19.4,64,29.75,10.0,West,3.5,-,N/A,,Overcast,270,2013-03-04 04:15:00
9:36 PM,30.2,19.4,64,29.77,10.0,WNW,6.9,-,N/A,,Scattered Clouds,290,2013-03-04 04:36:00
9:55 PM,30.2,17.6,60,29.77,10.0,WNW,8.1,-,N/A,,Partly Cloudy,290,2013-03-04 04:55:00
10:15 PM,28.4,15.8,59,29.78,10.0,West,12.7,20.7,N/A,,Clear,280,2013-03-04 05:15:00
10:55 PM,28.4,12.2,51,29.79,10.0,WNW,9.2,-,N/A,,Clear,290,2013-03-04 05:55:00
11:15 PM,28.4,12.2,51,29.80,10.0,WNW,6.9,-,N/A,,Clear,300,2013-03-04 06:15:00
11:35 PM,28.4,10.4,47,29.81,10.0,West,8.1,-,N/A,,Clear,280,2013-03-04 06:35:00